sensor_id;sensor_type;location;lat;lon;timestamp;P1;durP1;ratioP1;P2;durP2;ratioP2
27925;SDS011;15267;47.838;12.128;2022-10-31T00:01:17;13.45;;;6.20;;
27925;SDS011;15267;47.838;12.128;2022-10-31T00:03:43;12.75;;;5.72;;
27925;SDS011;15267;47.838;12.128;2022-10-31T00:06:09;14.48;;;6.25;;
27925;SDS011;15267;47.838;12.128;2022-10-31T00:08:35;10.23;;;5.43;;
27925;SDS011;15267;47.838;12.128;2022-10-31T00:11:01;14.40;;;6.70;;
27925;SDS011;15267;47.838;12.128;2022-10-31T00:13:27;19.73;;;6.72;;
27925;SDS011;15267;47.838;12.128;2022-10-31T00:15:53;14.38;;;6.70;;
27925;SDS011;15267;47.838;12.128;2022-10-31T00:18:19;13.93;;;6.05;;
27925;SDS011;15267;47.838;12.128;2022-10-31T00:20:45;15.20;;;5.78;;
27925;SDS011;15267;47.838;12.128;2022-10-31T00:23:11;11.32;;;5.72;;
27925;SDS011;15267;47.838;12.128;2022-10-31T00:25:38;15.00;;;6.35;;
27925;SDS011;15267;47.838;12.128;2022-10-31T00:28:05;12.05;;;5.97;;
27925;SDS011;15267;47.838;12.128;2022-10-31T00:30:31;11.23;;;5.85;;
27925;SDS011;15267;47.838;12.128;2022-10-31T00:32:57;13.98;;;6.45;;
27925;SDS011;15267;47.838;12.128;2022-10-31T00:35:23;12.75;;;5.57;;
27925;SDS011;15267;47.838;12.128;2022-10-31T00:37:49;14.38;;;6.28;;
27925;SDS011;15267;47.838;12.128;2022-10-31T00:40:15;11.60;;;6.28;;
27925;SDS011;15267;47.838;12.128;2022-10-31T00:42:41;11.77;;;5.80;;
27925;SDS011;15267;47.838;12.128;2022-10-31T00:45:08;12.15;;;6.22;;
27925;SDS011;15267;47.838;12.128;2022-10-31T00:47:34;12.57;;;5.85;;
27925;SDS011;15267;47.838;12.128;2022-10-31T00:50:00;9.32;;;5.70;;
27925;SDS011;15267;47.838;12.128;2022-10-31T00:52:26;13.68;;;5.32;;
27925;SDS011;15267;47.838;12.128;2022-10-31T00:54:52;10.98;;;5.97;;
27925;SDS011;15267;47.838;12.128;2022-10-31T00:57:18;11.55;;;5.82;;
27925;SDS011;15267;47.838;12.128;2022-10-31T00:59:44;15.05;;;6.40;;
27925;SDS011;15267;47.838;12.128;2022-10-31T01:02:10;17.23;;;5.97;;
27925;SDS011;15267;47.838;12.128;2022-10-31T01:04:36;15.15;;;5.72;;
27925;SDS011;15267;47.838;12.128;2022-10-31T01:07:02;12.98;;;6.03;;
27925;SDS011;15267;47.838;12.128;2022-10-31T01:09:28;11.75;;;5.60;;
27925;SDS011;15267;47.838;12.128;2022-10-31T01:11:54;13.35;;;5.85;;
27925;SDS011;15267;47.838;12.128;2022-10-31T01:14:20;12.88;;;5.20;;
27925;SDS011;15267;47.838;12.128;2022-10-31T01:16:46;12.90;;;5.68;;
27925;SDS011;15267;47.838;12.128;2022-10-31T01:19:12;10.88;;;5.32;;
27925;SDS011;15267;47.838;12.128;2022-10-31T01:21:38;15.35;;;5.50;;
27925;SDS011;15267;47.838;12.128;2022-10-31T01:24:04;14.60;;;5.35;;
27925;SDS011;15267;47.838;12.128;2022-10-31T01:26:30;15.18;;;5.80;;
27925;SDS011;15267;47.838;12.128;2022-10-31T01:28:58;10.55;;;5.30;;
27925;SDS011;15267;47.838;12.128;2022-10-31T01:31:25;11.20;;;5.22;;
27925;SDS011;15267;47.838;12.128;2022-10-31T01:33:51;11.15;;;5.05;;
27925;SDS011;15267;47.838;12.128;2022-10-31T01:36:19;9.68;;;4.80;;
27925;SDS011;15267;47.838;12.128;2022-10-31T01:38:46;9.43;;;4.88;;
27925;SDS011;15267;47.838;12.128;2022-10-31T01:41:13;10.13;;;5.40;;
27925;SDS011;15267;47.838;12.128;2022-10-31T01:46:15;13.73;;;5.90;;
27925;SDS011;15267;47.838;12.128;2022-10-31T01:48:43;12.15;;;4.95;;
27925;SDS011;15267;47.838;12.128;2022-10-31T01:51:09;13.35;;;5.50;;
27925;SDS011;15267;47.838;12.128;2022-10-31T01:53:36;15.20;;;5.25;;
27925;SDS011;15267;47.838;12.128;2022-10-31T01:56:02;15.80;;;5.72;;
27925;SDS011;15267;47.838;12.128;2022-10-31T01:58:28;13.48;;;5.47;;
27925;SDS011;15267;47.838;12.128;2022-10-31T02:00:57;11.65;;;5.15;;
27925;SDS011;15267;47.838;12.128;2022-10-31T02:03:24;13.38;;;5.07;;
27925;SDS011;15267;47.838;12.128;2022-10-31T02:05:51;7.60;;;4.40;;
27925;SDS011;15267;47.838;12.128;2022-10-31T02:10:44;11.68;;;4.70;;
27925;SDS011;15267;47.838;12.128;2022-10-31T02:13:10;9.52;;;5.10;;
27925;SDS011;15267;47.838;12.128;2022-10-31T02:15:37;13.27;;;5.10;;
27925;SDS011;15267;47.838;12.128;2022-10-31T02:18:04;10.93;;;4.40;;
27925;SDS011;15267;47.838;12.128;2022-10-31T02:20:32;12.10;;;4.82;;
27925;SDS011;15267;47.838;12.128;2022-10-31T02:30:55;14.32;;;5.40;;
27925;SDS011;15267;47.838;12.128;2022-10-31T02:33:25;11.82;;;5.10;;
27925;SDS011;15267;47.838;12.128;2022-10-31T02:40:53;10.18;;;5.15;;
27925;SDS011;15267;47.838;12.128;2022-10-31T02:43:34;11.75;;;4.88;;
27925;SDS011;15267;47.838;12.128;2022-10-31T02:48:31;10.18;;;4.82;;
27925;SDS011;15267;47.838;12.128;2022-10-31T02:51:01;11.60;;;4.40;;
27925;SDS011;15267;47.838;12.128;2022-10-31T02:53:31;14.13;;;5.00;;
27925;SDS011;15267;47.838;12.128;2022-10-31T02:58:31;11.85;;;5.07;;
27925;SDS011;15267;47.838;12.128;2022-10-31T03:01:10;14.52;;;4.93;;
27925;SDS011;15267;47.838;12.128;2022-10-31T03:09:03;12.27;;;5.25;;
27925;SDS011;15267;47.838;12.128;2022-10-31T03:11:39;10.77;;;4.63;;
27925;SDS011;15267;47.838;12.128;2022-10-31T03:14:19;12.18;;;4.90;;
27925;SDS011;15267;47.838;12.128;2022-10-31T03:16:47;9.60;;;4.90;;
27925;SDS011;15267;47.838;12.128;2022-10-31T03:19:15;9.35;;;4.60;;
27925;SDS011;15267;47.838;12.128;2022-10-31T03:21:44;13.77;;;5.20;;
27925;SDS011;15267;47.838;12.128;2022-10-31T03:24:10;8.02;;;4.40;;
27925;SDS011;15267;47.838;12.128;2022-10-31T03:26:38;11.93;;;4.93;;
27925;SDS011;15267;47.838;12.128;2022-10-31T03:29:06;9.98;;;5.28;;
27925;SDS011;15267;47.838;12.128;2022-10-31T03:31:37;11.75;;;4.85;;
27925;SDS011;15267;47.838;12.128;2022-10-31T03:34:04;10.63;;;5.05;;
27925;SDS011;15267;47.838;12.128;2022-10-31T03:36:32;11.98;;;4.93;;
27925;SDS011;15267;47.838;12.128;2022-10-31T03:38:59;8.80;;;4.57;;
27925;SDS011;15267;47.838;12.128;2022-10-31T03:41:28;11.35;;;5.20;;
27925;SDS011;15267;47.838;12.128;2022-10-31T03:43:58;11.52;;;4.97;;
27925;SDS011;15267;47.838;12.128;2022-10-31T03:46:25;11.43;;;5.30;;
27925;SDS011;15267;47.838;12.128;2022-10-31T03:48:51;10.32;;;4.63;;
27925;SDS011;15267;47.838;12.128;2022-10-31T03:51:25;12.02;;;4.57;;
27925;SDS011;15267;47.838;12.128;2022-10-31T03:53:56;8.95;;;4.60;;
27925;SDS011;15267;47.838;12.128;2022-10-31T03:58:53;13.32;;;5.15;;
27925;SDS011;15267;47.838;12.128;2022-10-31T04:01:21;10.63;;;4.70;;
27925;SDS011;15267;47.838;12.128;2022-10-31T04:03:48;10.73;;;4.47;;
27925;SDS011;15267;47.838;12.128;2022-10-31T04:06:14;12.77;;;4.47;;
27925;SDS011;15267;47.838;12.128;2022-10-31T04:08:45;7.68;;;4.20;;
27925;SDS011;15267;47.838;12.128;2022-10-31T04:11:12;7.63;;;4.30;;
27925;SDS011;15267;47.838;12.128;2022-10-31T04:13:39;10.40;;;4.78;;
27925;SDS011;15267;47.838;12.128;2022-10-31T04:16:06;9.10;;;4.32;;
27925;SDS011;15267;47.838;12.128;2022-10-31T04:18:32;13.27;;;4.65;;
27925;SDS011;15267;47.838;12.128;2022-10-31T04:20:59;8.38;;;4.18;;
27925;SDS011;15267;47.838;12.128;2022-10-31T04:23:26;8.80;;;3.92;;
27925;SDS011;15267;47.838;12.128;2022-10-31T04:25:52;8.30;;;3.67;;
27925;SDS011;15267;47.838;12.128;2022-10-31T04:28:18;10.48;;;4.07;;
27925;SDS011;15267;47.838;12.128;2022-10-31T04:30:44;7.75;;;3.95;;
27925;SDS011;15267;47.838;12.128;2022-10-31T04:33:10;9.38;;;3.97;;
27925;SDS011;15267;47.838;12.128;2022-10-31T04:35:36;11.25;;;4.38;;
27925;SDS011;15267;47.838;12.128;2022-10-31T04:38:02;8.43;;;3.92;;
27925;SDS011;15267;47.838;12.128;2022-10-31T04:40:28;10.55;;;4.07;;
27925;SDS011;15267;47.838;12.128;2022-10-31T04:42:54;10.75;;;4.25;;
27925;SDS011;15267;47.838;12.128;2022-10-31T04:45:20;8.55;;;4.03;;
27925;SDS011;15267;47.838;12.128;2022-10-31T04:47:46;11.52;;;4.40;;
27925;SDS011;15267;47.838;12.128;2022-10-31T04:50:12;7.82;;;4.20;;
27925;SDS011;15267;47.838;12.128;2022-10-31T04:52:38;9.18;;;4.07;;
27925;SDS011;15267;47.838;12.128;2022-10-31T04:55:05;8.60;;;4.38;;
27925;SDS011;15267;47.838;12.128;2022-10-31T04:57:31;7.30;;;4.00;;
27925;SDS011;15267;47.838;12.128;2022-10-31T04:59:57;7.40;;;4.00;;
27925;SDS011;15267;47.838;12.128;2022-10-31T05:02:23;7.57;;;4.47;;
27925;SDS011;15267;47.838;12.128;2022-10-31T05:04:49;8.52;;;4.28;;
27925;SDS011;15267;47.838;12.128;2022-10-31T05:07:14;9.10;;;4.47;;
27925;SDS011;15267;47.838;12.128;2022-10-31T05:09:40;6.43;;;3.88;;
27925;SDS011;15267;47.838;12.128;2022-10-31T05:12:06;9.32;;;4.10;;
27925;SDS011;15267;47.838;12.128;2022-10-31T05:14:32;7.03;;;3.92;;
27925;SDS011;15267;47.838;12.128;2022-10-31T05:16:58;7.45;;;4.22;;
27925;SDS011;15267;47.838;12.128;2022-10-31T05:19:24;9.07;;;4.32;;
27925;SDS011;15267;47.838;12.128;2022-10-31T05:21:50;6.28;;;3.85;;
27925;SDS011;15267;47.838;12.128;2022-10-31T05:24:16;8.45;;;3.88;;
27925;SDS011;15267;47.838;12.128;2022-10-31T05:26:42;6.50;;;3.55;;
27925;SDS011;15267;47.838;12.128;2022-10-31T05:29:08;10.70;;;4.60;;
27925;SDS011;15267;47.838;12.128;2022-10-31T05:31:34;8.52;;;4.10;;
27925;SDS011;15267;47.838;12.128;2022-10-31T05:34:00;7.80;;;4.18;;
27925;SDS011;15267;47.838;12.128;2022-10-31T05:36:26;8.57;;;4.05;;
27925;SDS011;15267;47.838;12.128;2022-10-31T05:38:52;7.88;;;4.32;;
27925;SDS011;15267;47.838;12.128;2022-10-31T05:41:18;11.10;;;4.10;;
27925;SDS011;15267;47.838;12.128;2022-10-31T05:43:44;7.93;;;4.10;;
27925;SDS011;15267;47.838;12.128;2022-10-31T05:46:10;10.40;;;4.53;;
27925;SDS011;15267;47.838;12.128;2022-10-31T05:48:36;10.23;;;4.55;;
27925;SDS011;15267;47.838;12.128;2022-10-31T05:51:02;10.63;;;4.30;;
27925;SDS011;15267;47.838;12.128;2022-10-31T05:53:28;9.27;;;4.38;;
27925;SDS011;15267;47.838;12.128;2022-10-31T05:55:54;12.90;;;4.30;;
27925;SDS011;15267;47.838;12.128;2022-10-31T05:58:20;8.43;;;4.18;;
27925;SDS011;15267;47.838;12.128;2022-10-31T06:00:46;9.95;;;4.43;;
27925;SDS011;15267;47.838;12.128;2022-10-31T06:03:12;11.43;;;4.28;;
27925;SDS011;15267;47.838;12.128;2022-10-31T06:05:38;10.10;;;4.45;;
27925;SDS011;15267;47.838;12.128;2022-10-31T06:08:04;10.70;;;4.30;;
27925;SDS011;15267;47.838;12.128;2022-10-31T06:10:30;6.57;;;4.10;;
27925;SDS011;15267;47.838;12.128;2022-10-31T06:12:56;7.68;;;4.18;;
27925;SDS011;15267;47.838;12.128;2022-10-31T06:15:22;10.55;;;4.30;;
27925;SDS011;15267;47.838;12.128;2022-10-31T06:17:56;11.20;;;4.88;;
27925;SDS011;15267;47.838;12.128;2022-10-31T06:20:22;12.82;;;4.25;;
27925;SDS011;15267;47.838;12.128;2022-10-31T06:22:48;8.88;;;4.57;;
27925;SDS011;15267;47.838;12.128;2022-10-31T06:25:14;9.13;;;4.72;;
27925;SDS011;15267;47.838;12.128;2022-10-31T06:27:40;10.70;;;5.10;;
27925;SDS011;15267;47.838;12.128;2022-10-31T06:30:06;10.57;;;5.18;;
27925;SDS011;15267;47.838;12.128;2022-10-31T06:32:33;12.52;;;5.10;;
27925;SDS011;15267;47.838;12.128;2022-10-31T06:34:59;17.02;;;5.57;;
27925;SDS011;15267;47.838;12.128;2022-10-31T06:37:25;10.50;;;4.95;;
27925;SDS011;15267;47.838;12.128;2022-10-31T06:39:50;14.57;;;5.20;;
27925;SDS011;15267;47.838;12.128;2022-10-31T06:42:16;11.68;;;5.03;;
27925;SDS011;15267;47.838;12.128;2022-10-31T06:44:42;14.85;;;5.10;;
27925;SDS011;15267;47.838;12.128;2022-10-31T06:47:08;12.73;;;5.03;;
27925;SDS011;15267;47.838;12.128;2022-10-31T06:49:34;11.00;;;5.22;;
27925;SDS011;15267;47.838;12.128;2022-10-31T06:52:00;10.68;;;5.03;;
27925;SDS011;15267;47.838;12.128;2022-10-31T06:54:26;12.88;;;5.63;;
27925;SDS011;15267;47.838;12.128;2022-10-31T06:56:52;16.27;;;5.70;;
27925;SDS011;15267;47.838;12.128;2022-10-31T06:59:18;11.77;;;5.05;;
27925;SDS011;15267;47.838;12.128;2022-10-31T07:01:44;14.73;;;5.03;;
27925;SDS011;15267;47.838;12.128;2022-10-31T07:04:10;14.35;;;5.35;;
27925;SDS011;15267;47.838;12.128;2022-10-31T07:06:36;14.13;;;5.15;;
27925;SDS011;15267;47.838;12.128;2022-10-31T07:09:02;11.75;;;5.55;;
27925;SDS011;15267;47.838;12.128;2022-10-31T07:11:28;11.82;;;5.45;;
27925;SDS011;15267;47.838;12.128;2022-10-31T07:13:54;10.30;;;4.30;;
27925;SDS011;15267;47.838;12.128;2022-10-31T07:16:20;8.68;;;4.20;;
27925;SDS011;15267;47.838;12.128;2022-10-31T07:18:46;8.50;;;4.00;;
27925;SDS011;15267;47.838;12.128;2022-10-31T07:21:12;9.25;;;4.18;;
27925;SDS011;15267;47.838;12.128;2022-10-31T07:23:38;10.52;;;4.35;;
27925;SDS011;15267;47.838;12.128;2022-10-31T07:26:04;11.63;;;4.50;;
27925;SDS011;15267;47.838;12.128;2022-10-31T07:28:30;6.90;;;4.18;;
27925;SDS011;15267;47.838;12.128;2022-10-31T07:30:57;10.93;;;4.32;;
27925;SDS011;15267;47.838;12.128;2022-10-31T07:33:23;13.60;;;5.25;;
27925;SDS011;15267;47.838;12.128;2022-10-31T07:35:52;12.93;;;5.55;;
27925;SDS011;15267;47.838;12.128;2022-10-31T07:38:19;11.52;;;5.60;;
27925;SDS011;15267;47.838;12.128;2022-10-31T07:40:48;12.20;;;5.60;;
27925;SDS011;15267;47.838;12.128;2022-10-31T07:43:14;12.82;;;5.25;;
27925;SDS011;15267;47.838;12.128;2022-10-31T07:45:40;12.20;;;5.18;;
27925;SDS011;15267;47.838;12.128;2022-10-31T07:48:06;16.10;;;6.32;;
27925;SDS011;15267;47.838;12.128;2022-10-31T07:50:32;13.43;;;6.60;;
27925;SDS011;15267;47.838;12.128;2022-10-31T07:53:03;23.25;;;6.93;;
27925;SDS011;15267;47.838;12.128;2022-10-31T07:55:29;15.82;;;6.72;;
27925;SDS011;15267;47.838;12.128;2022-10-31T07:57:56;12.50;;;6.35;;
27925;SDS011;15267;47.838;12.128;2022-10-31T08:00:22;16.52;;;6.28;;
27925;SDS011;15267;47.838;12.128;2022-10-31T08:02:55;15.57;;;6.60;;
27925;SDS011;15267;47.838;12.128;2022-10-31T08:05:21;20.53;;;6.83;;
27925;SDS011;15267;47.838;12.128;2022-10-31T08:07:47;18.70;;;7.10;;
27925;SDS011;15267;47.838;12.128;2022-10-31T08:10:13;22.65;;;8.05;;
27925;SDS011;15267;47.838;12.128;2022-10-31T08:12:39;17.42;;;7.18;;
27925;SDS011;15267;47.838;12.128;2022-10-31T08:15:05;24.05;;;7.72;;
27925;SDS011;15267;47.838;12.128;2022-10-31T08:17:34;15.95;;;8.10;;
27925;SDS011;15267;47.838;12.128;2022-10-31T08:20:00;23.05;;;8.65;;
27925;SDS011;15267;47.838;12.128;2022-10-31T08:22:26;20.88;;;7.00;;
27925;SDS011;15267;47.838;12.128;2022-10-31T08:24:52;21.10;;;6.80;;
27925;SDS011;15267;47.838;12.128;2022-10-31T08:27:18;14.02;;;6.63;;
27925;SDS011;15267;47.838;12.128;2022-10-31T08:29:44;13.88;;;5.70;;
27925;SDS011;15267;47.838;12.128;2022-10-31T08:32:10;20.08;;;5.43;;
27925;SDS011;15267;47.838;12.128;2022-10-31T08:34:36;13.30;;;5.25;;
27925;SDS011;15267;47.838;12.128;2022-10-31T08:37:02;12.05;;;5.38;;
27925;SDS011;15267;47.838;12.128;2022-10-31T08:39:28;15.23;;;5.88;;
27925;SDS011;15267;47.838;12.128;2022-10-31T08:41:54;18.17;;;5.95;;
27925;SDS011;15267;47.838;12.128;2022-10-31T08:44:20;15.82;;;5.63;;
27925;SDS011;15267;47.838;12.128;2022-10-31T08:46:46;14.45;;;5.47;;
27925;SDS011;15267;47.838;12.128;2022-10-31T08:49:12;15.88;;;5.43;;
27925;SDS011;15267;47.838;12.128;2022-10-31T08:51:38;12.57;;;5.15;;
27925;SDS011;15267;47.838;12.128;2022-10-31T08:54:04;14.63;;;5.20;;
27925;SDS011;15267;47.838;12.128;2022-10-31T08:56:30;13.02;;;5.32;;
27925;SDS011;15267;47.838;12.128;2022-10-31T08:58:56;15.05;;;5.53;;
27925;SDS011;15267;47.838;12.128;2022-10-31T09:01:22;13.55;;;5.53;;
27925;SDS011;15267;47.838;12.128;2022-10-31T09:03:48;15.38;;;5.50;;
27925;SDS011;15267;47.838;12.128;2022-10-31T09:06:13;12.25;;;5.32;;
27925;SDS011;15267;47.838;12.128;2022-10-31T09:08:39;18.58;;;5.70;;
27925;SDS011;15267;47.838;12.128;2022-10-31T09:11:05;13.43;;;6.05;;
27925;SDS011;15267;47.838;12.128;2022-10-31T09:13:32;17.70;;;5.47;;
27925;SDS011;15267;47.838;12.128;2022-10-31T09:15:58;12.75;;;5.35;;
27925;SDS011;15267;47.838;12.128;2022-10-31T09:18:24;14.07;;;5.90;;
27925;SDS011;15267;47.838;12.128;2022-10-31T09:20:52;16.35;;;5.68;;
27925;SDS011;15267;47.838;12.128;2022-10-31T09:23:20;12.73;;;5.13;;
27925;SDS011;15267;47.838;12.128;2022-10-31T09:25:46;13.38;;;5.28;;
27925;SDS011;15267;47.838;12.128;2022-10-31T09:28:14;15.48;;;5.80;;
27925;SDS011;15267;47.838;12.128;2022-10-31T09:30:40;13.10;;;5.35;;
27925;SDS011;15267;47.838;12.128;2022-10-31T09:33:09;15.73;;;5.15;;
27925;SDS011;15267;47.838;12.128;2022-10-31T09:35:36;11.38;;;5.10;;
27925;SDS011;15267;47.838;12.128;2022-10-31T09:38:07;9.27;;;4.93;;
27925;SDS011;15267;47.838;12.128;2022-10-31T09:45:29;15.73;;;5.53;;
27925;SDS011;15267;47.838;12.128;2022-10-31T09:50:35;13.10;;;5.15;;
27925;SDS011;15267;47.838;12.128;2022-10-31T09:53:04;12.07;;;5.50;;
27925;SDS011;15267;47.838;12.128;2022-10-31T09:55:39;12.57;;;5.10;;
27925;SDS011;15267;47.838;12.128;2022-10-31T09:58:08;10.00;;;4.68;;
27925;SDS011;15267;47.838;12.128;2022-10-31T10:00:38;12.13;;;5.10;;
27925;SDS011;15267;47.838;12.128;2022-10-31T10:05:33;14.98;;;5.05;;
27925;SDS011;15267;47.838;12.128;2022-10-31T10:08:01;14.73;;;5.07;;
27925;SDS011;15267;47.838;12.128;2022-10-31T10:10:36;12.98;;;5.00;;
27925;SDS011;15267;47.838;12.128;2022-10-31T10:16:03;13.70;;;5.28;;
27925;SDS011;15267;47.838;12.128;2022-10-31T10:18:38;15.60;;;5.13;;
27925;SDS011;15267;47.838;12.128;2022-10-31T10:21:19;14.15;;;5.35;;
27925;SDS011;15267;47.838;12.128;2022-10-31T10:23:55;15.93;;;5.13;;
27925;SDS011;15267;47.838;12.128;2022-10-31T10:29:12;16.77;;;5.40;;
27925;SDS011;15267;47.838;12.128;2022-10-31T10:31:38;11.73;;;4.88;;
27925;SDS011;15267;47.838;12.128;2022-10-31T10:34:07;10.35;;;5.00;;
27925;SDS011;15267;47.838;12.128;2022-10-31T10:39:39;11.30;;;4.60;;
27925;SDS011;15267;47.838;12.128;2022-10-31T10:42:07;13.40;;;4.30;;
27925;SDS011;15267;47.838;12.128;2022-10-31T10:44:55;13.70;;;4.57;;
27925;SDS011;15267;47.838;12.128;2022-10-31T10:47:41;10.75;;;4.50;;
27925;SDS011;15267;47.838;12.128;2022-10-31T10:50:18;21.20;;;4.82;;
27925;SDS011;15267;47.838;12.128;2022-10-31T10:52:53;18.95;;;5.15;;
27925;SDS011;15267;47.838;12.128;2022-10-31T11:00:48;12.00;;;4.45;;
27925;SDS011;15267;47.838;12.128;2022-10-31T11:03:15;10.90;;;4.40;;
27925;SDS011;15267;47.838;12.128;2022-10-31T11:05:52;15.05;;;4.40;;
27925;SDS011;15267;47.838;12.128;2022-10-31T11:08:25;14.30;;;4.18;;
27925;SDS011;15267;47.838;12.128;2022-10-31T11:11:02;17.27;;;4.53;;
27925;SDS011;15267;47.838;12.128;2022-10-31T11:13:28;14.18;;;4.47;;
27925;SDS011;15267;47.838;12.128;2022-10-31T11:16:06;14.75;;;4.70;;
27925;SDS011;15267;47.838;12.128;2022-10-31T11:18:34;14.65;;;4.93;;
27925;SDS011;15267;47.838;12.128;2022-10-31T11:21:02;12.82;;;4.25;;
27925;SDS011;15267;47.838;12.128;2022-10-31T11:23:29;15.50;;;4.10;;
27925;SDS011;15267;47.838;12.128;2022-10-31T11:26:05;9.98;;;4.07;;
27925;SDS011;15267;47.838;12.128;2022-10-31T11:28:32;14.85;;;4.72;;
27925;SDS011;15267;47.838;12.128;2022-10-31T11:31:00;12.90;;;4.43;;
27925;SDS011;15267;47.838;12.128;2022-10-31T11:33:34;14.77;;;4.53;;
27925;SDS011;15267;47.838;12.128;2022-10-31T11:36:01;12.68;;;4.35;;
27925;SDS011;15267;47.838;12.128;2022-10-31T11:38:31;12.82;;;4.60;;
27925;SDS011;15267;47.838;12.128;2022-10-31T11:40:59;11.85;;;4.15;;
27925;SDS011;15267;47.838;12.128;2022-10-31T11:43:26;16.33;;;5.03;;
27925;SDS011;15267;47.838;12.128;2022-10-31T11:45:52;13.95;;;4.60;;
27925;SDS011;15267;47.838;12.128;2022-10-31T11:48:19;13.77;;;4.63;;
27925;SDS011;15267;47.838;12.128;2022-10-31T11:50:53;14.88;;;4.30;;
27925;SDS011;15267;47.838;12.128;2022-10-31T11:53:25;12.98;;;4.20;;
27925;SDS011;15267;47.838;12.128;2022-10-31T11:56:03;15.48;;;4.70;;
27925;SDS011;15267;47.838;12.128;2022-10-31T11:58:29;9.77;;;4.57;;
27925;SDS011;15267;47.838;12.128;2022-10-31T12:00:56;11.82;;;4.70;;
27925;SDS011;15267;47.838;12.128;2022-10-31T12:05:58;14.70;;;4.78;;
27925;SDS011;15267;47.838;12.128;2022-10-31T12:08:35;17.05;;;4.53;;
27925;SDS011;15267;47.838;12.128;2022-10-31T12:13:39;17.02;;;4.32;;
27925;SDS011;15267;47.838;12.128;2022-10-31T12:16:12;14.35;;;3.95;;
27925;SDS011;15267;47.838;12.128;2022-10-31T12:18:44;12.40;;;4.30;;
27925;SDS011;15267;47.838;12.128;2022-10-31T12:24:26;15.18;;;4.30;;
27925;SDS011;15267;47.838;12.128;2022-10-31T12:26:34;13.65;;;4.50;;
27925;SDS011;15267;47.838;12.128;2022-10-31T12:31:43;12.40;;;4.40;;
27925;SDS011;15267;47.838;12.128;2022-10-31T12:47:22;14.05;;;4.10;;
27925;SDS011;15267;47.838;12.128;2022-10-31T12:55:31;16.30;;;4.57;;
27925;SDS011;15267;47.838;12.128;2022-10-31T12:58:01;13.70;;;4.60;;
27925;SDS011;15267;47.838;12.128;2022-10-31T13:00:28;12.93;;;4.20;;
27925;SDS011;15267;47.838;12.128;2022-10-31T13:05:42;12.63;;;4.10;;
27925;SDS011;15267;47.838;12.128;2022-10-31T13:08:10;12.38;;;4.50;;
27925;SDS011;15267;47.838;12.128;2022-10-31T13:10:41;12.95;;;4.43;;
27925;SDS011;15267;47.838;12.128;2022-10-31T13:13:13;13.15;;;4.25;;
27925;SDS011;15267;47.838;12.128;2022-10-31T13:15:50;17.20;;;4.88;;
27925;SDS011;15267;47.838;12.128;2022-10-31T13:18:21;20.15;;;4.57;;
27925;SDS011;15267;47.838;12.128;2022-10-31T13:20:49;19.58;;;4.75;;
27925;SDS011;15267;47.838;12.128;2022-10-31T13:25:44;21.42;;;5.32;;
27925;SDS011;15267;47.838;12.128;2022-10-31T13:28:15;15.35;;;4.88;;
27925;SDS011;15267;47.838;12.128;2022-10-31T13:30:45;17.63;;;4.82;;
27925;SDS011;15267;47.838;12.128;2022-10-31T13:33:31;12.30;;;4.90;;
27925;SDS011;15267;47.838;12.128;2022-10-31T13:38:51;17.73;;;5.50;;
27925;SDS011;15267;47.838;12.128;2022-10-31T13:43:59;15.88;;;5.40;;
27925;SDS011;15267;47.838;12.128;2022-10-31T13:46:26;15.20;;;5.53;;
27925;SDS011;15267;47.838;12.128;2022-10-31T13:49:00;12.77;;;5.40;;
27925;SDS011;15267;47.838;12.128;2022-10-31T13:51:27;16.10;;;6.05;;
27925;SDS011;15267;47.838;12.128;2022-10-31T13:56:21;17.30;;;6.07;;
27925;SDS011;15267;47.838;12.128;2022-10-31T13:59:01;19.90;;;6.28;;
27925;SDS011;15267;47.838;12.128;2022-10-31T14:01:27;19.55;;;5.95;;
27925;SDS011;15267;47.838;12.128;2022-10-31T14:06:23;12.05;;;5.10;;
27925;SDS011;15267;47.838;12.128;2022-10-31T14:08:59;15.60;;;5.70;;
27925;SDS011;15267;47.838;12.128;2022-10-31T14:11:26;15.85;;;5.10;;
27925;SDS011;15267;47.838;12.128;2022-10-31T14:13:53;17.63;;;4.88;;
27925;SDS011;15267;47.838;12.128;2022-10-31T14:16:22;14.30;;;4.90;;
27925;SDS011;15267;47.838;12.128;2022-10-31T14:18:51;10.70;;;4.70;;
27925;SDS011;15267;47.838;12.128;2022-10-31T14:23:48;18.95;;;5.07;;
27925;SDS011;15267;47.838;12.128;2022-10-31T14:31:35;11.40;;;4.40;;
27925;SDS011;15267;47.838;12.128;2022-10-31T14:34:04;19.40;;;4.53;;
27925;SDS011;15267;47.838;12.128;2022-10-31T14:36:49;11.55;;;5.00;;
27925;SDS011;15267;47.838;12.128;2022-10-31T14:49:32;15.18;;;5.10;;
27925;SDS011;15267;47.838;12.128;2022-10-31T14:52:00;14.02;;;4.85;;
27925;SDS011;15267;47.838;12.128;2022-10-31T14:56:56;13.13;;;4.85;;
27925;SDS011;15267;47.838;12.128;2022-10-31T14:59:26;10.70;;;4.70;;
27925;SDS011;15267;47.838;12.128;2022-10-31T15:02:37;18.55;;;5.55;;
27925;SDS011;15267;47.838;12.128;2022-10-31T15:04:43;15.75;;;5.00;;
27925;SDS011;15267;47.838;12.128;2022-10-31T15:09:39;13.25;;;5.43;;
27925;SDS011;15267;47.838;12.128;2022-10-31T15:12:21;21.75;;;4.90;;
27925;SDS011;15267;47.838;12.128;2022-10-31T15:14:48;11.82;;;4.15;;
27925;SDS011;15267;47.838;12.128;2022-10-31T15:17:14;14.25;;;4.40;;
27925;SDS011;15267;47.838;12.128;2022-10-31T15:19:41;20.63;;;6.00;;
27925;SDS011;15267;47.838;12.128;2022-10-31T15:22:09;18.23;;;8.05;;
27925;SDS011;15267;47.838;12.128;2022-10-31T15:24:36;22.80;;;10.40;;
27925;SDS011;15267;47.838;12.128;2022-10-31T15:27:02;20.90;;;7.40;;
27925;SDS011;15267;47.838;12.128;2022-10-31T15:29:29;17.27;;;6.72;;
27925;SDS011;15267;47.838;12.128;2022-10-31T15:31:56;15.20;;;6.50;;
27925;SDS011;15267;47.838;12.128;2022-10-31T15:34:25;19.75;;;5.70;;
27925;SDS011;15267;47.838;12.128;2022-10-31T15:36:52;15.63;;;5.60;;
27925;SDS011;15267;47.838;12.128;2022-10-31T15:39:18;16.30;;;5.47;;
27925;SDS011;15267;47.838;12.128;2022-10-31T15:44:12;18.90;;;5.82;;
27925;SDS011;15267;47.838;12.128;2022-10-31T15:46:40;18.88;;;5.80;;
27925;SDS011;15267;47.838;12.128;2022-10-31T15:49:11;20.55;;;5.90;;
27925;SDS011;15267;47.838;12.128;2022-10-31T15:51:38;19.80;;;5.32;;
27925;SDS011;15267;47.838;12.128;2022-10-31T15:54:04;17.00;;;5.57;;
27925;SDS011;15267;47.838;12.128;2022-10-31T15:56:30;18.27;;;5.85;;
27925;SDS011;15267;47.838;12.128;2022-10-31T15:58:58;17.40;;;7.13;;
27925;SDS011;15267;47.838;12.128;2022-10-31T16:01:33;27.45;;;11.60;;
27925;SDS011;15267;47.838;12.128;2022-10-31T16:06:32;26.58;;;11.00;;
27925;SDS011;15267;47.838;12.128;2022-10-31T16:08:58;16.52;;;9.65;;
27925;SDS011;15267;47.838;12.128;2022-10-31T16:11:29;20.55;;;11.02;;
27925;SDS011;15267;47.838;12.128;2022-10-31T16:16:23;34.53;;;13.52;;
27925;SDS011;15267;47.838;12.128;2022-10-31T16:18:49;37.72;;;20.45;;
27925;SDS011;15267;47.838;12.128;2022-10-31T16:21:22;28.55;;;14.73;;
27925;SDS011;15267;47.838;12.128;2022-10-31T16:23:49;30.10;;;15.85;;
27925;SDS011;15267;47.838;12.128;2022-10-31T16:26:17;30.65;;;15.15;;
27925;SDS011;15267;47.838;12.128;2022-10-31T16:28:51;36.03;;;18.92;;
27925;SDS011;15267;47.838;12.128;2022-10-31T16:31:24;31.65;;;16.25;;
27925;SDS011;15267;47.838;12.128;2022-10-31T16:33:51;23.48;;;12.65;;
27925;SDS011;15267;47.838;12.128;2022-10-31T16:38:58;29.70;;;12.10;;
27925;SDS011;15267;47.838;12.128;2022-10-31T16:41:24;25.27;;;11.77;;